Time,TemperatureF,DewpointF,PressureIn,WindDirection,WindDirectionDegrees,WindSpeedMPH,WindSpeedGustMPH,Humidity,HourlyPrecipIn,Conditions,Clouds,dailyrainin,SoftwareType,DateUTC
2013-02-16 00:05:00,44.5,43.7,30.25,South,188,0.0,0.0,97,0.00,,,0.00,Wunderground v.1.15,2013-02-16 08:05:00,
2013-02-16 00:15:00,44.6,43.8,30.26,South,188,0.0,0.0,97,0.00,,,0.00,Wunderground v.1.15,2013-02-16 08:15:00,
2013-02-16 00:25:00,44.7,43.9,30.26,SSW,200,0.0,0.0,97,0.00,,,0.00,Wunderground v.1.15,2013-02-16 08:25:00,
2013-02-16 00:35:00,44.8,44.0,30.26,SSW,200,0.0,0.0,97,0.00,,,0.00,Wunderground v.1.15,2013-02-16 08:35:00,
2013-02-16 00:45:00,44.7,43.6,30.26,SSW,200,0.0,0.0,96,0.00,,,0.00,Wunderground v.1.15,2013-02-16 08:45:00,
2013-02-16 00:55:00,44.5,43.4,30.26,West,268,0.0,0.0,96,0.00,,,0.00,Wunderground v.1.15,2013-02-16 08:55:00,
2013-02-16 01:05:00,44.4,43.3,30.26,West,268,0.0,0.0,96,0.00,,,0.00,Wunderground v.1.15,2013-02-16 09:05:00,
2013-02-16 01:15:00,44.4,43.3,30.26,West,268,0.0,0.0,96,0.00,,,0.00,Wunderground v.1.15,2013-02-16 09:15:00,
2013-02-16 01:25:00,44.5,43.4,30.26,West,268,0.0,0.0,96,0.00,,,0.00,Wunderground v.1.15,2013-02-16 09:25:00,
2013-02-16 01:30:00,44.5,43.4,30.26,West,268,0.0,0.0,96,0.00,,,0.00,Wunderground v.1.15,2013-02-16 09:30:00,
2013-02-16 01:40:00,44.6,43.8,30.26,West,268,0.0,0.0,97,0.00,,,0.00,Wunderground v.1.15,2013-02-16 09:40:00,
2013-02-16 01:50:00,44.6,43.8,30.27,West,268,0.0,0.0,97,0.00,,,0.00,Wunderground v.1.15,2013-02-16 09:50:00,
2013-02-16 02:05:00,44.7,43.9,30.26,West,268,0.0,0.0,97,0.00,,,0.00,Wunderground v.1.15,2013-02-16 10:05:00,
2013-02-16 02:15:00,44.7,43.9,30.26,West,268,0.0,0.0,97,0.00,,,0.00,Wunderground v.1.15,2013-02-16 10:15:00,
2013-02-16 02:20:00,44.8,44.0,30.27,West,268,0.0,0.0,97,0.00,,,0.00,Wunderground v.1.15,2013-02-16 10:20:00,
2013-02-16 02:30:00,44.8,44.0,30.26,West,268,0.0,0.0,97,0.00,,,0.00,Wunderground v.1.15,2013-02-16 10:30:00,
2013-02-16 02:40:00,44.8,44.0,30.26,West,268,0.0,0.0,97,0.00,,,0.00,Wunderground v.1.15,2013-02-16 10:40:00,
2013-02-16 02:45:00,44.8,44.0,30.26,West,268,0.0,0.0,97,0.00,,,0.00,Wunderground v.1.15,2013-02-16 10:45:00,
2013-02-16 02:51:00,44.7,43.6,30.27,West,268,0.0,0.0,96,0.00,,,0.00,Wunderground v.1.15,2013-02-16 10:51:00,
2013-02-16 03:05:00,44.6,43.8,30.26,SE,132,0.0,0.0,97,0.00,,,0.00,Wunderground v.1.15,2013-02-16 11:05:00,
2013-02-16 03:15:00,44.7,43.9,30.26,SE,124,0.0,0.0,97,0.00,,,0.00,Wunderground v.1.15,2013-02-16 11:15:00,
2013-02-16 03:25:00,44.6,43.5,30.26,SE,125,1.0,3.0,96,0.00,,,0.00,Wunderground v.1.15,2013-02-16 11:25:00,
2013-02-16 03:35:00,44.5,43.4,30.26,SE,125,0.0,1.0,96,0.00,,,0.00,Wunderground v.1.15,2013-02-16 11:35:00,
2013-02-16 03:45:00,44.4,43.3,30.26,SE,125,0.0,0.0,96,0.00,,,0.00,Wunderground v.1.15,2013-02-16 11:45:00,
2013-02-16 03:50:00,44.4,43.3,30.25,SE,125,0.0,0.0,96,0.00,,,0.00,Wunderground v.1.15,2013-02-16 11:50:00,
2013-02-16 04:01:00,44.2,43.1,30.25,ESE,123,0.0,2.0,96,0.00,,,0.00,Wunderground v.1.15,2013-02-16 12:01:00,
2013-02-16 04:10:00,44.2,43.1,30.25,SE,132,1.0,2.0,96,0.00,,,0.00,Wunderground v.1.15,2013-02-16 12:10:00,
2013-02-16 04:20:00,44.1,43.0,30.25,SE,134,1.0,1.0,96,0.00,,,0.00,Wunderground v.1.15,2013-02-16 12:20:00,
2013-02-16 04:30:00,44.1,43.0,30.25,ESE,123,0.0,1.0,96,0.00,,,0.00,Wunderground v.1.15,2013-02-16 12:30:00,
2013-02-16 04:35:00,44.1,42.8,30.25,ESE,123,0.0,1.0,95,0.00,,,0.00,Wunderground v.1.15,2013-02-16 12:35:00,
2013-02-16 04:45:00,44.1,42.8,30.25,ESE,123,0.0,0.0,95,0.00,,,0.00,Wunderground v.1.15,2013-02-16 12:45:00,
2013-02-16 04:50:00,44.1,43.0,30.25,ESE,123,0.0,0.0,96,0.00,,,0.00,Wunderground v.1.15,2013-02-16 12:50:00,
2013-02-16 05:05:00,44.0,42.9,30.26,ESE,123,0.0,0.0,96,0.00,,,0.00,Wunderground v.1.15,2013-02-16 13:05:00,
2013-02-16 05:15:00,43.9,42.8,30.26,NW,309,0.0,0.0,96,0.00,,,0.00,Wunderground v.1.15,2013-02-16 13:15:00,
2013-02-16 05:20:00,43.9,42.8,30.26,NW,313,0.0,0.0,96,0.00,,,0.00,Wunderground v.1.15,2013-02-16 13:20:00,
2013-02-16 05:30:00,43.7,42.6,30.26,NW,313,0.0,0.0,96,0.00,,,0.00,Wunderground v.1.15,2013-02-16 13:30:00,
2013-02-16 05:40:00,43.7,42.6,30.26,NW,313,0.0,0.0,96,0.00,,,0.00,Wunderground v.1.15,2013-02-16 13:40:00,
2013-02-16 05:45:00,43.7,42.6,30.26,NW,313,0.0,0.0,96,0.00,,,0.00,Wunderground v.1.15,2013-02-16 13:45:00,
2013-02-16 05:55:00,43.7,42.9,30.26,NW,313,0.0,0.0,97,0.00,,,0.00,Wunderground v.1.15,2013-02-16 13:55:00,
2013-02-16 06:05:00,43.8,42.7,30.27,NW,313,0.0,0.0,96,0.00,,,0.00,Wunderground v.1.15,2013-02-16 14:05:00,
2013-02-16 06:15:00,43.8,42.7,30.27,NW,313,0.0,0.0,96,0.00,,,0.00,Wunderground v.1.15,2013-02-16 14:15:00,
2013-02-16 06:25:00,43.8,43.0,30.27,NW,313,0.0,0.0,97,0.00,,,0.00,Wunderground v.1.15,2013-02-16 14:25:00,
2013-02-16 06:35:00,43.8,43.0,30.27,NW,313,0.0,0.0,97,0.00,,,0.00,Wunderground v.1.15,2013-02-16 14:35:00,
2013-02-16 06:45:00,43.8,43.0,30.28,NW,313,0.0,0.0,97,0.00,,,0.00,Wunderground v.1.15,2013-02-16 14:45:00,
2013-02-16 06:50:00,43.8,43.0,30.28,NW,313,0.0,0.0,97,0.00,,,0.00,Wunderground v.1.15,2013-02-16 14:50:00,
2013-02-16 07:05:00,43.8,43.0,30.28,NW,313,0.0,0.0,97,0.00,,,0.00,Wunderground v.1.15,2013-02-16 15:05:00,
2013-02-16 07:15:00,43.7,42.9,30.28,NW,313,0.0,0.0,97,0.00,,,0.00,Wunderground v.1.15,2013-02-16 15:15:00,
2013-02-16 07:25:00,43.7,42.9,30.28,NW,313,0.0,0.0,97,0.00,,,0.00,Wunderground v.1.15,2013-02-16 15:25:00,
2013-02-16 07:30:00,43.7,42.9,30.28,NW,313,0.0,0.0,97,0.00,,,0.00,Wunderground v.1.15,2013-02-16 15:30:00,
2013-02-16 07:40:00,43.7,42.9,30.28,NW,313,0.0,0.0,97,0.00,,,0.00,Wunderground v.1.15,2013-02-16 15:40:00,
2013-02-16 07:50:00,43.7,42.9,30.29,NW,321,0.0,0.0,97,0.00,,,0.00,Wunderground v.1.15,2013-02-16 15:50:00,
2013-02-16 08:05:00,43.7,43.2,30.29,NW,321,0.0,0.0,98,0.00,,,0.00,Wunderground v.1.15,2013-02-16 16:05:00,
2013-02-16 08:15:00,43.8,43.3,30.29,NW,321,0.0,0.0,98,0.00,,,0.00,Wunderground v.1.15,2013-02-16 16:15:00,
2013-02-16 08:20:00,43.9,43.4,30.29,NW,321,0.0,0.0,98,0.00,,,0.00,Wunderground v.1.15,2013-02-16 16:20:00,
2013-02-16 08:30:00,43.9,43.4,30.30,NW,321,0.0,0.0,98,0.00,,,0.00,Wunderground v.1.15,2013-02-16 16:30:00,
2013-02-16 08:40:00,44.0,43.5,30.30,NW,321,0.0,0.0,98,0.00,,,0.00,Wunderground v.1.15,2013-02-16 16:40:00,
2013-02-16 08:50:00,44.2,43.7,30.30,NW,321,0.0,0.0,98,0.00,,,0.00,Wunderground v.1.15,2013-02-16 16:50:00,
2013-02-16 09:05:00,44.6,44.1,30.31,NW,321,0.0,0.0,98,0.00,,,0.00,Wunderground v.1.15,2013-02-16 17:05:00,
2013-02-16 09:10:00,44.7,44.2,30.30,NW,321,0.0,0.0,98,0.00,,,0.00,Wunderground v.1.15,2013-02-16 17:10:00,
2013-02-16 09:20:00,45.3,44.8,30.30,NW,321,0.0,0.0,98,0.00,,,0.00,Wunderground v.1.15,2013-02-16 17:20:00,
2013-02-16 09:35:00,45.8,45.0,30.31,NW,321,0.0,0.0,97,0.00,,,0.00,Wunderground v.1.15,2013-02-16 17:35:00,
2013-02-16 09:45:00,46.3,45.5,30.31,East,95,0.0,0.0,97,0.00,,,0.00,Wunderground v.1.15,2013-02-16 17:45:00,
2013-02-16 09:50:00,46.5,45.1,30.31,East,95,0.0,0.0,95,0.00,,,0.00,Wunderground v.1.15,2013-02-16 17:50:00,
2013-02-16 09:55:00,46.6,45.2,30.31,East,94,0.0,0.0,95,0.00,,,0.00,Wunderground v.1.15,2013-02-16 17:55:00,
2013-02-16 10:05:00,46.8,45.4,30.31,WNW,296,0.0,0.0,95,0.00,,,0.00,Wunderground v.1.15,2013-02-16 18:05:00,
2013-02-16 10:15:00,46.9,45.5,30.31,North,5,0.0,0.0,95,0.00,,,0.00,Wunderground v.1.15,2013-02-16 18:15:00,
2013-02-16 10:25:00,47.0,45.6,30.31,East,95,0.0,0.0,95,0.00,,,0.00,Wunderground v.1.15,2013-02-16 18:25:00,
2013-02-16 10:35:00,47.1,45.7,30.31,North,360,0.0,0.0,95,0.00,,,0.00,Wunderground v.1.15,2013-02-16 18:35:00,
2013-02-16 10:45:00,47.1,45.7,30.31,NNW,330,0.0,0.0,95,0.00,,,0.00,Wunderground v.1.15,2013-02-16 18:45:00,
2013-02-16 10:50:00,47.4,46.0,30.31,NNW,330,0.0,0.0,95,0.00,,,0.00,Wunderground v.1.15,2013-02-16 18:50:00,
2013-02-16 11:05:00,47.9,46.0,30.31,West,279,1.0,2.0,93,0.00,,,0.00,Wunderground v.1.15,2013-02-16 19:05:00,
2013-02-16 11:15:00,48.3,46.7,30.31,WNW,302,1.0,2.0,94,0.00,,,0.00,Wunderground v.1.15,2013-02-16 19:15:00,
2013-02-16 11:25:00,49.0,46.5,30.31,NNE,19,1.0,2.0,91,0.00,,,0.00,Wunderground v.1.15,2013-02-16 19:25:00,
2013-02-16 11:35:00,49.2,46.4,30.31,NW,319,1.0,1.0,90,0.00,,,0.00,Wunderground v.1.15,2013-02-16 19:35:00,
2013-02-16 11:40:00,48.7,45.9,30.31,NNE,25,1.0,1.0,90,0.00,,,0.00,Wunderground v.1.15,2013-02-16 19:40:00,
2013-02-16 11:50:00,48.5,46.6,30.30,NNE,17,0.0,1.0,93,0.00,,,0.01,Wunderground v.1.15,2013-02-16 19:50:00,
2013-02-16 12:05:00,49.2,47.0,30.30,ESE,121,0.0,0.0,92,0.00,,,0.01,Wunderground v.1.15,2013-02-16 20:05:00,
2013-02-16 12:10:00,49.8,47.0,30.30,NNE,26,0.0,0.0,90,0.00,,,0.01,Wunderground v.1.15,2013-02-16 20:10:00,
2013-02-16 12:20:00,51.0,46.3,30.29,NW,313,1.0,2.0,84,0.00,,,0.01,Wunderground v.1.15,2013-02-16 20:20:00,
2013-02-16 12:30:00,50.8,47.1,30.29,WNW,294,1.0,3.0,87,0.00,,,0.01,Wunderground v.1.15,2013-02-16 20:30:00,
2013-02-16 12:40:00,50.3,46.0,30.29,West,281,2.0,2.0,85,0.00,,,0.01,Wunderground v.1.15,2013-02-16 20:40:00,
2013-02-16 12:45:00,50.2,45.9,30.29,NW,312,1.0,4.0,85,0.00,,,0.01,Wunderground v.1.15,2013-02-16 20:45:00,
2013-02-16 12:51:00,50.2,46.2,30.29,NNW,346,1.0,4.0,86,0.00,,,0.01,Wunderground v.1.15,2013-02-16 20:51:00,
2013-02-16 13:05:00,51.2,44.9,30.28,North,5,4.0,4.0,79,0.00,,,0.01,Wunderground v.1.15,2013-02-16 21:05:00,
2013-02-16 13:10:00,50.8,45.2,30.28,WNW,301,4.0,8.0,81,0.00,,,0.01,Wunderground v.1.15,2013-02-16 21:10:00,
2013-02-16 13:20:00,50.0,44.7,30.28,WNW,298,4.0,4.0,82,0.00,,,0.01,Wunderground v.1.15,2013-02-16 21:20:00,
2013-02-16 13:35:00,49.9,44.6,30.28,NNW,345,4.0,4.0,82,0.00,,,0.01,Wunderground v.1.15,2013-02-16 21:35:00,
2013-02-16 13:45:00,50.1,44.2,30.28,NW,320,2.0,3.0,80,0.00,,,0.01,Wunderground v.1.15,2013-02-16 21:45:00,
2013-02-16 13:50:00,50.2,44.9,30.28,NW,304,2.0,3.0,82,0.00,,,0.01,Wunderground v.1.15,2013-02-16 21:50:00,
2013-02-16 14:05:00,50.4,44.8,30.28,NW,324,1.0,1.0,81,0.00,,,0.01,Wunderground v.1.15,2013-02-16 22:05:00,
2013-02-16 14:15:00,50.3,45.0,30.27,WNW,290,0.0,0.0,82,0.00,,,0.01,Wunderground v.1.15,2013-02-16 22:15:00,
2013-02-16 14:25:00,49.7,43.8,30.27,NNW,329,2.0,5.0,80,0.00,,,0.01,Wunderground v.1.15,2013-02-16 22:25:00,
2013-02-16 14:35:00,49.1,43.8,30.27,WNW,303,2.0,4.0,82,0.00,,,0.01,Wunderground v.1.15,2013-02-16 22:35:00,
2013-02-16 14:40:00,49.1,44.2,30.27,North,360,2.0,4.0,83,0.00,,,0.01,Wunderground v.1.15,2013-02-16 22:40:00,
2013-02-16 14:50:00,49.4,44.1,30.27,NW,304,1.0,2.0,82,0.00,,,0.01,Wunderground v.1.15,2013-02-16 22:50:00,
2013-02-16 15:05:00,50.3,44.7,30.27,WNW,296,2.0,2.0,81,0.00,,,0.01,Wunderground v.1.15,2013-02-16 23:05:00,
2013-02-16 15:15:00,50.3,44.7,30.27,WNW,299,2.0,2.0,81,0.00,,,0.01,Wunderground v.1.15,2013-02-16 23:15:00,
2013-02-16 15:30:00,50.4,44.8,30.27,WNW,284,1.0,1.0,81,0.00,,,0.01,Wunderground v.1.15,2013-02-16 23:30:00,
2013-02-16 15:40:00,50.3,44.0,30.27,NNE,12,2.0,2.0,79,0.00,,,0.01,Wunderground v.1.15,2013-02-16 23:40:00,
2013-02-16 15:50:00,50.1,44.5,30.27,NNW,346,1.0,1.0,81,0.00,,,0.01,Wunderground v.1.15,2013-02-16 23:50:00,
2013-02-16 15:55:00,50.1,44.8,30.27,NNW,343,1.0,1.0,82,0.00,,,0.01,Wunderground v.1.15,2013-02-16 23:55:00,
2013-02-16 16:05:00,50.1,45.1,30.27,WNW,292,1.0,2.0,83,0.00,,,0.01,Wunderground v.1.15,2013-02-17 00:05:00,
2013-02-16 16:15:00,50.1,44.5,30.27,West,281,1.0,1.0,81,0.00,,,0.01,Wunderground v.1.15,2013-02-17 00:15:00,
2013-02-16 16:25:00,50.0,44.7,30.27,NNW,346,1.0,2.0,82,0.00,,,0.01,Wunderground v.1.15,2013-02-17 00:25:00,
2013-02-16 16:35:00,49.8,44.5,30.27,North,5,2.0,2.0,82,0.00,,,0.01,Wunderground v.1.15,2013-02-17 00:35:00,
2013-02-16 16:40:00,49.7,44.7,30.27,NW,312,1.0,1.0,83,0.00,,,0.01,Wunderground v.1.15,2013-02-17 00:40:00,
2013-02-16 16:51:00,49.6,44.6,30.27,ENE,63,1.0,1.0,83,0.00,,,0.01,Wunderground v.1.15,2013-02-17 00:51:00,
2013-02-16 17:05:00,48.8,43.9,30.27,WSW,246,3.0,4.0,83,0.00,,,0.01,Wunderground v.1.15,2013-02-17 01:05:00,
2013-02-16 17:10:00,48.4,44.1,30.27,WNW,297,3.0,5.0,85,0.00,,,0.01,Wunderground v.1.15,2013-02-17 01:10:00,
2013-02-16 17:20:00,47.9,43.9,30.27,NW,312,3.0,4.0,86,0.00,,,0.01,Wunderground v.1.15,2013-02-17 01:20:00,
2013-02-16 17:30:00,47.5,43.8,30.27,NNW,329,2.0,3.0,87,0.00,,,0.01,Wunderground v.1.15,2013-02-17 01:30:00,
2013-02-16 17:35:00,47.3,43.6,30.27,NNW,329,2.0,2.0,87,0.00,,,0.01,Wunderground v.1.15,2013-02-17 01:35:00,
2013-02-16 17:45:00,46.8,43.4,30.27,NNW,329,1.0,1.0,88,0.00,,,0.01,Wunderground v.1.15,2013-02-17 01:45:00,
2013-02-16 17:50:00,46.3,42.9,30.27,NNW,329,1.0,3.0,88,0.00,,,0.01,Wunderground v.1.15,2013-02-17 01:50:00,
2013-02-16 18:05:00,45.4,42.3,30.27,West,279,1.0,1.0,89,0.00,,,0.01,Wunderground v.1.15,2013-02-17 02:05:00,
2013-02-16 18:15:00,44.9,42.1,30.27,NW,313,0.0,0.0,90,0.00,,,0.01,Wunderground v.1.15,2013-02-17 02:15:00,
2013-02-16 18:25:00,44.3,41.8,30.27,NW,323,0.0,0.0,91,0.00,,,0.01,Wunderground v.1.15,2013-02-17 02:25:00,
2013-02-16 18:35:00,44.0,41.5,30.27,WNW,298,0.0,0.0,91,0.00,,,0.01,Wunderground v.1.15,2013-02-17 02:35:00,
2013-02-16 18:50:00,43.6,41.4,30.27,NW,306,0.0,0.0,92,0.00,,,0.01,Wunderground v.1.15,2013-02-17 02:50:00,
2013-02-16 19:05:00,43.3,41.4,30.27,North,355,0.0,0.0,93,0.00,,,0.01,Wunderground v.1.15,2013-02-17 03:05:00,
2013-02-16 19:10:00,43.4,41.5,30.28,North,360,0.0,0.0,93,0.00,,,0.01,Wunderground v.1.15,2013-02-17 03:10:00,
2013-02-16 19:20:00,43.2,41.3,30.28,North,360,0.0,0.0,93,0.00,,,0.01,Wunderground v.1.15,2013-02-17 03:20:00,
2013-02-16 19:30:00,43.0,41.1,30.28,NNW,327,0.0,0.0,93,0.00,,,0.01,Wunderground v.1.15,2013-02-17 03:30:00,
2013-02-16 19:40:00,42.7,41.1,30.28,WNW,288,0.0,3.0,94,0.00,,,0.01,Wunderground v.1.15,2013-02-17 03:40:00,
2013-02-16 19:50:00,42.4,41.1,30.28,WNW,302,0.0,0.0,95,0.00,,,0.01,Wunderground v.1.15,2013-02-17 03:50:00,
2013-02-16 20:05:00,42.0,40.7,30.29,NW,306,0.0,0.0,95,0.00,,,0.01,Wunderground v.1.15,2013-02-17 04:05:00,
2013-02-16 20:15:00,41.8,40.7,30.29,NW,306,0.0,0.0,96,0.00,,,0.01,Wunderground v.1.15,2013-02-17 04:15:00,
2013-02-16 20:20:00,41.8,40.7,30.29,NW,321,0.0,0.0,96,0.00,,,0.01,Wunderground v.1.15,2013-02-17 04:20:00,
2013-02-16 20:30:00,41.9,41.1,30.29,NNW,339,0.0,0.0,97,0.00,,,0.01,Wunderground v.1.15,2013-02-17 04:30:00,
2013-02-16 20:40:00,42.1,41.3,30.29,NNW,339,0.0,0.0,97,0.00,,,0.01,Wunderground v.1.15,2013-02-17 04:40:00,
2013-02-16 20:45:00,42.2,41.4,30.29,NNW,339,0.0,0.0,97,0.00,,,0.01,Wunderground v.1.15,2013-02-17 04:45:00,
2013-02-16 20:55:00,42.5,41.7,30.28,NNW,339,0.0,0.0,97,0.00,,,0.01,Wunderground v.1.15,2013-02-17 04:55:00,
2013-02-16 21:05:00,42.6,41.5,30.28,NNW,339,0.0,0.0,96,0.00,,,0.01,Wunderground v.1.15,2013-02-17 05:05:00,
2013-02-16 21:10:00,42.6,41.5,30.28,NNW,339,0.0,0.0,96,0.00,,,0.01,Wunderground v.1.15,2013-02-17 05:10:00,
2013-02-16 21:15:00,42.5,41.4,30.28,NNW,339,0.0,0.0,96,0.00,,,0.01,Wunderground v.1.15,2013-02-17 05:15:00,
2013-02-16 21:20:00,42.4,41.3,30.29,NNW,339,0.0,1.0,96,0.00,,,0.01,Wunderground v.1.15,2013-02-17 05:20:00,
2013-02-16 21:30:00,41.9,40.6,30.29,NW,321,0.0,0.0,95,0.00,,,0.01,Wunderground v.1.15,2013-02-17 05:30:00,
2013-02-16 21:35:00,41.6,40.3,30.29,NW,321,0.0,0.0,95,0.00,,,0.01,Wunderground v.1.15,2013-02-17 05:35:00,
2013-02-16 21:45:00,41.4,40.3,30.29,NW,321,0.0,0.0,96,0.00,,,0.01,Wunderground v.1.15,2013-02-17 05:45:00,
2013-02-16 21:50:00,41.4,40.3,30.29,NW,321,0.0,0.0,96,0.00,,,0.01,Wunderground v.1.15,2013-02-17 05:50:00,
2013-02-16 21:55:00,41.3,40.2,30.30,NW,321,0.0,0.0,96,0.00,,,0.01,Wunderground v.1.15,2013-02-17 05:55:00,
2013-02-16 22:05:00,41.2,40.4,30.30,NNW,338,0.0,1.0,97,0.00,,,0.01,Wunderground v.1.15,2013-02-17 06:05:00,
2013-02-16 22:10:00,41.3,40.5,30.30,NNW,345,0.0,1.0,97,0.00,,,0.01,Wunderground v.1.15,2013-02-17 06:10:00,
2013-02-16 22:20:00,41.2,40.4,30.29,NNW,345,0.0,0.0,97,0.00,,,0.02,Wunderground v.1.15,2013-02-17 06:20:00,
2013-02-16 22:35:00,41.7,41.2,30.30,WNW,302,1.0,2.0,98,0.22,,,0.06,Wunderground v.1.15,2013-02-17 06:35:00,
2013-02-16 22:40:00,41.8,41.3,30.29,NNW,329,1.0,2.0,98,0.13,,,0.07,Wunderground v.1.15,2013-02-17 06:40:00,
2013-02-16 22:50:00,42.1,41.6,30.29,NNW,342,0.0,3.0,98,0.05,,,0.07,Wunderground v.1.15,2013-02-17 06:50:00,
2013-02-16 23:05:00,42.0,41.5,30.29,NNW,342,0.0,0.0,98,0.00,,,0.07,Wunderground v.1.15,2013-02-17 07:05:00,
2013-02-16 23:15:00,41.8,41.3,30.29,NNW,342,0.0,0.0,98,0.00,,,0.07,Wunderground v.1.15,2013-02-17 07:15:00,
2013-02-16 23:20:00,41.8,41.3,30.29,NNW,342,0.0,0.0,98,0.00,,,0.07,Wunderground v.1.15,2013-02-17 07:20:00,
2013-02-16 23:30:00,41.6,41.1,30.29,NNW,342,0.0,0.0,98,0.00,,,0.07,Wunderground v.1.15,2013-02-17 07:30:00,
2013-02-16 23:40:00,41.6,41.1,30.29,NNW,342,0.0,0.0,98,0.00,,,0.07,Wunderground v.1.15,2013-02-17 07:40:00,
2013-02-16 23:45:00,41.6,41.1,30.29,NNW,342,0.0,0.0,98,0.00,,,0.07,Wunderground v.1.15,2013-02-17 07:45:00,
2013-02-16 23:50:00,41.6,41.1,30.29,NNW,342,0.0,0.0,98,0.00,,,0.07,Wunderground v.1.15,2013-02-17 07:50:00,